createdAt,value
2017-07-24T00:00:18.605Z,0
2017-07-24T00:01:20.655Z,0
2017-07-24T00:02:22.703Z,0
2017-07-24T00:03:24.756Z,0
2017-07-24T00:04:26.810Z,0
2017-07-24T00:05:28.863Z,0
2017-07-24T00:06:31.576Z,0
2017-07-24T00:07:33.640Z,0
2017-07-24T00:08:35.694Z,0
2017-07-24T00:09:37.738Z,0
2017-07-24T00:10:39.792Z,0
2017-07-24T00:11:42.166Z,0
2017-07-24T00:12:44.552Z,0
2017-07-24T00:13:46.610Z,0
2017-07-24T00:14:48.663Z,0
2017-07-24T00:15:51.041Z,0
2017-07-24T00:16:53.080Z,0
2017-07-24T00:17:55.128Z,0
2017-07-24T00:18:57.167Z,0
2017-07-24T00:19:59.210Z,0
2017-07-24T00:21:01.278Z,0
2017-07-24T00:22:03.324Z,0
2017-07-24T00:23:05.375Z,0
2017-07-24T00:24:07.773Z,0
2017-07-24T00:25:09.826Z,0
2017-07-24T00:26:11.899Z,0
2017-07-24T00:27:13.956Z,0
2017-07-24T00:28:16.009Z,0
2017-07-24T00:29:18.074Z,0
2017-07-24T00:30:20.134Z,0
2017-07-24T00:31:22.176Z,0
2017-07-24T00:32:24.217Z,0
2017-07-24T00:33:26.279Z,0
2017-07-24T00:34:28.325Z,0
2017-07-24T00:35:30.363Z,0
2017-07-24T00:36:32.750Z,0
2017-07-24T00:37:34.805Z,0
2017-07-24T00:38:36.857Z,0
2017-07-24T00:39:38.898Z,0
2017-07-24T00:40:41.296Z,0
2017-07-24T00:41:43.708Z,0
2017-07-24T00:42:46.112Z,0
2017-07-24T00:43:48.495Z,0
2017-07-24T00:44:50.539Z,0
2017-07-24T00:45:52.600Z,0
2017-07-24T00:46:54.641Z,0
2017-07-24T00:47:57.023Z,0
2017-07-24T00:48:59.074Z,0
2017-07-24T00:50:01.130Z,0
2017-07-24T00:51:03.855Z,0
2017-07-24T00:52:06.236Z,0
2017-07-24T00:53:08.290Z,0
2017-07-24T00:54:10.682Z,0
2017-07-24T00:55:13.414Z,0
2017-07-24T00:56:15.462Z,0
2017-07-24T00:57:17.517Z,0
2017-07-24T00:58:19.905Z,0
2017-07-24T00:59:22.621Z,0
2017-07-24T01:00:24.662Z,0
2017-07-24T01:01:27.443Z,0
2017-07-24T01:02:29.851Z,0
2017-07-24T01:03:31.887Z,0
2017-07-24T01:04:34.276Z,0
2017-07-24T01:05:36.332Z,0
2017-07-24T01:06:38.710Z,0
2017-07-24T01:07:41.107Z,0
2017-07-24T01:08:43.156Z,0
2017-07-24T01:09:45.203Z,0
2017-07-24T01:10:47.590Z,0
2017-07-24T01:11:50.318Z,0
2017-07-24T01:12:52.375Z,0
2017-07-24T01:13:54.420Z,0
2017-07-24T01:14:56.465Z,0
2017-07-24T01:15:58.511Z,0
2017-07-24T01:17:00.894Z,0
2017-07-24T01:18:03.296Z,0
2017-07-24T01:19:05.376Z,0
2017-07-24T01:20:07.432Z,0
2017-07-24T01:21:09.474Z,0
2017-07-24T01:22:11.860Z,0
2017-07-24T01:23:13.923Z,0
2017-07-24T01:24:16.304Z,0
2017-07-24T01:25:18.362Z,0
2017-07-24T01:26:20.410Z,0
2017-07-24T01:27:22.471Z,0
2017-07-24T01:28:24.522Z,0
2017-07-24T01:29:26.581Z,0
2017-07-24T01:30:28.626Z,0
2017-07-24T01:31:30.673Z,0
2017-07-24T01:32:32.724Z,0
2017-07-24T01:33:34.773Z,0
2017-07-24T01:34:37.144Z,0
2017-07-24T01:35:39.194Z,0
2017-07-24T01:36:41.245Z,0
2017-07-24T01:37:44.299Z,0
2017-07-24T01:38:46.692Z,0
2017-07-24T01:39:49.069Z,0
2017-07-24T01:40:51.144Z,0
2017-07-24T01:41:53.200Z,0
2017-07-24T01:42:55.250Z,0
2017-07-24T01:43:57.289Z,0
2017-07-24T01:44:59.350Z,0
2017-07-24T01:46:01.396Z,0
2017-07-24T01:47:04.462Z,0
2017-07-24T01:48:06.838Z,0
2017-07-24T01:49:09.222Z,0
2017-07-24T01:50:11.270Z,0
2017-07-24T01:51:13.313Z,0
2017-07-24T01:52:15.360Z,0
2017-07-24T01:53:17.419Z,0
2017-07-24T01:54:19.467Z,0
2017-07-24T01:55:21.514Z,0
2017-07-24T01:56:23.556Z,0
2017-07-24T01:57:25.650Z,0
2017-07-24T01:58:28.038Z,0
2017-07-24T01:59:30.424Z,0
2017-07-24T02:00:32.486Z,0
2017-07-24T02:01:34.533Z,0
2017-07-24T02:02:36.925Z,0
2017-07-24T02:03:38.969Z,0
2017-07-24T02:04:41.360Z,0
2017-07-24T02:05:43.746Z,0
2017-07-24T02:06:45.786Z,0
2017-07-24T02:07:47.822Z,0
2017-07-24T02:08:49.874Z,0
2017-07-24T02:09:52.251Z,0
2017-07-24T02:10:54.306Z,0
2017-07-24T02:11:56.717Z,0
2017-07-24T02:12:58.765Z,0
2017-07-24T02:14:00.813Z,0
2017-07-24T02:15:02.856Z,0
2017-07-24T02:16:05.918Z,0
2017-07-24T02:17:08.320Z,0
2017-07-24T02:18:10.372Z,0
2017-07-24T02:19:12.740Z,0
2017-07-24T02:20:15.464Z,0
2017-07-24T02:21:17.523Z,0
2017-07-24T02:22:19.574Z,0
2017-07-24T02:23:21.954Z,0
2017-07-24T02:24:23.990Z,0
2017-07-24T02:25:26.733Z,0
2017-07-24T02:26:28.790Z,0
2017-07-24T02:27:31.188Z,0
2017-07-24T02:28:33.235Z,0
2017-07-24T02:29:35.285Z,0
2017-07-24T02:30:37.332Z,0
2017-07-24T02:31:39.734Z,0
2017-07-24T02:32:41.777Z,0
2017-07-24T02:33:44.174Z,4
2017-07-24T02:34:46.222Z,4
2017-07-24T02:35:48.267Z,4
2017-07-24T02:36:50.315Z,4
2017-07-24T02:37:52.363Z,0
2017-07-24T02:38:54.740Z,4
2017-07-24T02:39:57.141Z,4
2017-07-24T02:40:59.201Z,4
2017-07-24T02:42:01.592Z,8
2017-07-24T02:43:04.332Z,4
2017-07-24T02:44:07.411Z,8
2017-07-24T02:45:10.165Z,8
2017-07-24T02:46:12.221Z,8
2017-07-24T02:47:14.606Z,12
2017-07-24T02:48:17.003Z,12
2017-07-24T02:49:19.043Z,12
2017-07-24T02:50:21.428Z,16
2017-07-24T02:51:23.845Z,20
2017-07-24T02:52:25.912Z,20
2017-07-24T02:53:27.953Z,24
2017-07-24T02:54:29.998Z,24
2017-07-24T02:55:32.374Z,32
2017-07-24T02:56:34.776Z,36
2017-07-24T02:57:37.510Z,40
2017-07-24T02:58:39.901Z,44
2017-07-24T02:59:41.942Z,48
2017-07-24T03:00:44.332Z,56
2017-07-24T03:01:46.391Z,64
2017-07-24T03:02:48.436Z,68
2017-07-24T03:03:50.824Z,76
2017-07-24T03:04:53.206Z,84
2017-07-24T03:05:55.590Z,96
2017-07-24T03:06:57.977Z,104
2017-07-24T03:08:00.015Z,120
2017-07-24T03:09:02.073Z,136
2017-07-24T03:10:04.121Z,156
2017-07-24T03:11:06.161Z,176
2017-07-24T03:12:08.212Z,192
2017-07-24T03:13:10.616Z,208
2017-07-24T03:14:12.674Z,220
2017-07-24T03:15:14.719Z,228
2017-07-24T03:16:17.437Z,240
2017-07-24T03:17:19.493Z,256
2017-07-24T03:18:21.542Z,276
2017-07-24T03:19:23.604Z,296
2017-07-24T03:20:26.658Z,324
2017-07-24T03:21:28.713Z,352
2017-07-24T03:22:30.768Z,380
2017-07-24T03:23:32.806Z,412
2017-07-24T03:24:34.859Z,436
2017-07-24T03:25:36.913Z,468
2017-07-24T03:26:38.959Z,504
2017-07-24T03:27:41.004Z,540
2017-07-24T03:28:43.407Z,576
2017-07-24T03:29:45.455Z,612
2017-07-24T03:30:47.835Z,644
2017-07-24T03:31:49.908Z,676
2017-07-24T03:32:51.967Z,712
2017-07-24T03:33:54.358Z,744
2017-07-24T03:34:56.394Z,776
2017-07-24T03:35:58.441Z,800
2017-07-24T03:37:00.857Z,832
2017-07-24T03:38:02.913Z,872
2017-07-24T03:39:04.957Z,912
2017-07-24T03:40:06.996Z,956
2017-07-24T03:41:09.427Z,1008
2017-07-24T03:42:11.476Z,1060
2017-07-24T03:43:13.869Z,1116
2017-07-24T03:44:15.928Z,1172
2017-07-24T03:45:18.325Z,1224
2017-07-24T03:46:20.378Z,1264
2017-07-24T03:47:22.419Z,1304
2017-07-24T03:48:24.483Z,1344
2017-07-24T03:49:26.552Z,1380
2017-07-24T03:50:28.943Z,1424
2017-07-24T03:51:31.329Z,1464
2017-07-24T03:52:33.384Z,1500
2017-07-24T03:53:35.435Z,1536
2017-07-24T03:54:37.483Z,1584
2017-07-24T03:55:39.530Z,1648
2017-07-24T03:56:41.590Z,1720
2017-07-24T03:57:43.969Z,1804
2017-07-24T03:58:46.019Z,1888
2017-07-24T03:59:48.745Z,1976
2017-07-24T04:00:51.131Z,2076
2017-07-24T04:01:53.524Z,2180
2017-07-24T04:02:56.270Z,2272
2017-07-24T04:03:58.675Z,2332
2017-07-24T04:05:01.400Z,2364
2017-07-24T04:06:03.440Z,2400
2017-07-24T04:07:06.186Z,2452
2017-07-24T04:08:08.243Z,2504
2017-07-24T04:09:10.292Z,2564
2017-07-24T04:10:12.687Z,2604
2017-07-24T04:11:15.077Z,2660
2017-07-24T04:12:17.122Z,2716
2017-07-24T04:13:19.552Z,2772
2017-07-24T04:14:21.606Z,2840
2017-07-24T04:15:23.980Z,2932
2017-07-24T04:16:26.060Z,3024
2017-07-24T04:17:28.104Z,3104
2017-07-24T04:18:30.152Z,3180
2017-07-24T04:19:32.551Z,3252
2017-07-24T04:20:34.603Z,3336
2017-07-24T04:21:37.004Z,3424
2017-07-24T04:22:39.036Z,3520
2017-07-24T04:23:41.116Z,3616
2017-07-24T04:24:43.536Z,3736
2017-07-24T04:25:46.265Z,3856
2017-07-24T04:26:48.653Z,3956
2017-07-24T04:27:51.057Z,4024
2017-07-24T04:28:53.101Z,4080
2017-07-24T04:29:55.504Z,4128
2017-07-24T04:30:57.889Z,4184
2017-07-24T04:32:00.276Z,4236
2017-07-24T04:33:02.327Z,4288
2017-07-24T04:34:04.381Z,4324
2017-07-24T04:35:07.101Z,4360
2017-07-24T04:36:09.486Z,4408
2017-07-24T04:37:12.215Z,4456
2017-07-24T04:38:14.279Z,4488
2017-07-24T04:39:17.019Z,4472
2017-07-24T04:40:19.076Z,4448
2017-07-24T04:41:21.117Z,4436
2017-07-24T04:42:23.176Z,4416
2017-07-24T04:43:25.221Z,4440
2017-07-24T04:44:27.320Z,4492
2017-07-24T04:45:29.699Z,4504
2017-07-24T04:46:32.083Z,4488
2017-07-24T04:47:34.132Z,4504
2017-07-24T04:48:36.876Z,4568
2017-07-24T04:49:38.918Z,4616
2017-07-24T04:50:40.966Z,4604
2017-07-24T04:51:43.356Z,4588
2017-07-24T04:52:45.746Z,4584
2017-07-24T04:53:47.794Z,4608
2017-07-24T04:54:49.853Z,4628
2017-07-24T04:55:51.922Z,4740
2017-07-24T04:56:53.969Z,4840
2017-07-24T04:57:56.014Z,4884
2017-07-24T04:58:58.091Z,4820
2017-07-24T05:00:00.825Z,4744
2017-07-24T05:01:02.874Z,4644
2017-07-24T05:02:05.257Z,4536
2017-07-24T05:03:07.362Z,4452
2017-07-24T05:04:10.162Z,4380
2017-07-24T05:05:12.571Z,4288
2017-07-24T05:06:15.098Z,4244
2017-07-24T05:07:17.525Z,4184
2017-07-24T05:08:20.367Z,4096
2017-07-24T05:09:22.431Z,4000
2017-07-24T05:10:24.499Z,3920
2017-07-24T05:11:28.937Z,3892
2017-07-24T05:12:33.568Z,3896
2017-07-24T05:13:35.910Z,3928
2017-07-24T05:14:39.803Z,4008
2017-07-24T05:15:42.539Z,4084
2017-07-24T05:16:44.604Z,4136
2017-07-24T05:17:46.651Z,4168
2017-07-24T05:18:48.719Z,4228
2017-07-24T05:19:50.770Z,4272
2017-07-24T05:20:53.147Z,4352
2017-07-24T05:21:55.195Z,4440
2017-07-24T05:22:57.257Z,4560
2017-07-24T05:23:59.319Z,4668
2017-07-24T05:25:01.721Z,4772
2017-07-24T05:26:04.456Z,4840
2017-07-24T05:27:06.524Z,4916
2017-07-24T05:28:08.584Z,5036
2017-07-24T05:29:10.629Z,5140
2017-07-24T05:30:13.041Z,5236
2017-07-24T05:31:15.115Z,5352
2017-07-24T05:32:17.180Z,5416
2017-07-24T05:33:19.585Z,5448
2017-07-24T05:34:21.654Z,5472
2017-07-24T05:35:24.041Z,5452
2017-07-24T05:36:26.103Z,5404
2017-07-24T05:37:28.141Z,5384
2017-07-24T05:38:30.207Z,5396
2017-07-24T05:39:32.262Z,5392
2017-07-24T05:40:34.317Z,5340
2017-07-24T05:41:36.363Z,5272
2017-07-24T05:42:38.418Z,5216
2017-07-24T05:43:40.473Z,5132
2017-07-24T05:44:42.522Z,5040
2017-07-24T05:45:44.588Z,4992
2017-07-24T05:46:47.002Z,4980
2017-07-24T05:47:49.719Z,4972
2017-07-24T05:48:52.457Z,5008
2017-07-24T05:49:54.508Z,5048
2017-07-24T05:50:56.563Z,5120
2017-07-24T05:51:59.277Z,5264
2017-07-24T05:53:08.355Z,5360
2017-07-24T05:54:10.418Z,5412
2017-07-24T05:55:12.472Z,5484
2017-07-24T05:56:14.523Z,5524
2017-07-24T05:57:16.592Z,5592
2017-07-24T05:58:18.660Z,5680
2017-07-24T05:59:20.711Z,5772
2017-07-24T06:00:23.118Z,5864
2017-07-24T06:01:25.551Z,5936
2017-07-24T06:02:27.616Z,6008
2017-07-24T06:03:29.765Z,6048
2017-07-24T06:04:32.163Z,6120
2017-07-24T06:05:34.562Z,6288
2017-07-24T06:06:36.618Z,6412
2017-07-24T06:07:38.668Z,6544
2017-07-24T06:08:40.744Z,6732
2017-07-24T06:09:43.135Z,6940
2017-07-24T06:10:45.530Z,7068
2017-07-24T06:11:47.930Z,7076
2017-07-24T06:12:49.988Z,7140
2017-07-24T06:13:52.036Z,7204
2017-07-24T06:14:54.112Z,7340
2017-07-24T06:15:56.520Z,7452
2017-07-24T06:16:58.913Z,7572
2017-07-24T06:18:00.966Z,7796
2017-07-24T06:19:03.379Z,8040
2017-07-24T06:20:05.764Z,8296
2017-07-24T06:21:07.831Z,8476
2017-07-24T06:22:09.878Z,8352
2017-07-24T06:23:12.278Z,8320
2017-07-24T06:24:15.007Z,8468
2017-07-24T06:25:17.057Z,8352
2017-07-24T06:26:19.463Z,8280
2017-07-24T06:27:21.520Z,8200
2017-07-24T06:28:23.567Z,8096
2017-07-24T06:29:25.628Z,7972
2017-07-24T06:30:28.022Z,7944
2017-07-24T06:31:30.081Z,7936
2017-07-24T06:32:32.146Z,7896
2017-07-24T06:33:34.549Z,8004
2017-07-24T06:34:36.611Z,8640
2017-07-24T06:35:39.334Z,8992
2017-07-24T06:36:41.411Z,9120
2017-07-24T06:37:43.798Z,9328
2017-07-24T06:38:45.864Z,9692
2017-07-24T06:39:48.256Z,10040
2017-07-24T06:40:50.309Z,10364
2017-07-24T06:41:52.380Z,10412
2017-07-24T06:42:54.458Z,10488
2017-07-24T06:43:56.523Z,10532
2017-07-24T06:44:58.589Z,10512
2017-07-24T06:46:00.658Z,10348
2017-07-24T06:47:02.727Z,9956
2017-07-24T06:48:05.462Z,9712
2017-07-24T06:49:07.521Z,9604
2017-07-24T06:50:09.574Z,9556
2017-07-24T06:51:11.642Z,9536
2017-07-24T06:52:13.708Z,9548
2017-07-24T06:53:15.753Z,9420
2017-07-24T06:54:17.813Z,9464
2017-07-24T06:55:20.211Z,9340
2017-07-24T06:56:22.612Z,9300
2017-07-24T06:57:24.700Z,9668
2017-07-24T06:58:27.103Z,10076
2017-07-24T06:59:29.177Z,10200
2017-07-24T07:00:31.231Z,10240
2017-07-24T07:01:33.293Z,10236
2017-07-24T07:02:35.348Z,10388
2017-07-24T07:03:37.425Z,10724
2017-07-24T07:04:39.811Z,11036
2017-07-24T07:05:41.869Z,11392
2017-07-24T07:06:43.943Z,11616
2017-07-24T07:07:46.342Z,11800
2017-07-24T07:08:48.396Z,11848
2017-07-24T07:09:50.789Z,12100
2017-07-24T07:10:52.853Z,12024
2017-07-24T07:11:55.255Z,11924
2017-07-24T07:12:57.307Z,12164
2017-07-24T07:13:59.716Z,12444
2017-07-24T07:15:01.786Z,12576
2017-07-24T07:16:04.165Z,12704
2017-07-24T07:17:06.225Z,12992
2017-07-24T07:18:08.279Z,13216
2017-07-24T07:19:10.695Z,13480
2017-07-24T07:20:12.751Z,13672
2017-07-24T07:21:15.482Z,13800
2017-07-24T07:22:17.537Z,13964
2017-07-24T07:23:19.610Z,13900
2017-07-24T07:24:21.663Z,14216
2017-07-24T07:25:23.715Z,14216
2017-07-24T07:26:25.795Z,14232
2017-07-24T07:27:27.850Z,14328
2017-07-24T07:28:29.915Z,14448
2017-07-24T07:29:32.313Z,14700
2017-07-24T07:30:34.366Z,14880
2017-07-24T07:31:36.790Z,14900
2017-07-24T07:32:38.850Z,14896
2017-07-24T07:33:41.608Z,14864
2017-07-24T07:34:43.669Z,15048
2017-07-24T07:35:45.724Z,15284
2017-07-24T07:36:47.774Z,15544
2017-07-24T07:37:49.834Z,16052
2017-07-24T07:38:51.889Z,16476
2017-07-24T07:39:53.969Z,16552
2017-07-24T07:40:56.384Z,16692
2017-07-24T07:41:58.466Z,16736
2017-07-24T07:43:00.525Z,17024
2017-07-24T07:44:02.924Z,17432
2017-07-24T07:45:04.983Z,18040
2017-07-24T07:46:07.722Z,18772
2017-07-24T07:47:10.144Z,19872
2017-07-24T07:48:13.261Z,20832
2017-07-24T07:49:15.656Z,20992
2017-07-24T07:50:18.063Z,20672
2017-07-24T07:51:20.110Z,19904
2017-07-24T07:52:22.513Z,19200
2017-07-24T07:53:24.573Z,18716
2017-07-24T07:54:26.632Z,18572
2017-07-24T07:55:28.697Z,18528
2017-07-24T07:56:30.764Z,18620
2017-07-24T07:57:32.812Z,18944
2017-07-24T07:58:34.885Z,19136
2017-07-24T07:59:36.928Z,19328
2017-07-24T08:00:38.992Z,19456
2017-07-24T08:01:41.547Z,19680
2017-07-24T08:02:43.602Z,19648
2017-07-24T08:03:45.670Z,19584
2017-07-24T08:04:48.066Z,19552
2017-07-24T08:05:50.125Z,19584
2017-07-24T08:06:52.546Z,19904
2017-07-24T08:07:54.944Z,20480
2017-07-24T08:08:57.335Z,21280
2017-07-24T08:09:59.395Z,21824
2017-07-24T08:11:01.817Z,22176
2017-07-24T08:12:03.879Z,22720
2017-07-24T08:13:05.929Z,22848
2017-07-24T08:14:08.670Z,22784
2017-07-24T08:15:10.738Z,22432
2017-07-24T08:16:12.796Z,22336
2017-07-24T08:17:15.554Z,22496
2017-07-24T08:18:17.960Z,22944
2017-07-24T08:19:20.030Z,23776
2017-07-24T08:20:22.090Z,24992
2017-07-24T08:21:24.163Z,26496
2017-07-24T08:22:26.236Z,27904
2017-07-24T08:23:28.637Z,28928
2017-07-24T08:24:30.700Z,29728
2017-07-24T08:25:33.113Z,30144
2017-07-24T08:26:35.531Z,30688
2017-07-24T08:27:37.595Z,31840
2017-07-24T08:28:39.654Z,34176
2017-07-24T08:29:41.715Z,35968
2017-07-24T08:30:43.777Z,37312
2017-07-24T08:31:45.820Z,38496
2017-07-24T08:32:47.880Z,38784
2017-07-24T08:33:49.958Z,39456
2017-07-24T08:34:52.008Z,40064
2017-07-24T08:35:54.405Z,41184
2017-07-24T08:36:56.465Z,42912
2017-07-24T08:37:58.520Z,43456
2017-07-24T08:39:01.256Z,44608
2017-07-24T08:40:03.318Z,42464
2017-07-24T08:41:05.387Z,49792
2017-07-24T08:42:07.459Z,72256
2017-07-24T08:43:09.517Z,79776
2017-07-24T08:44:11.590Z,73088
2017-07-24T08:45:13.656Z,68832
2017-07-24T08:46:16.037Z,70624
2017-07-24T08:47:18.477Z,72800
2017-07-24T08:48:20.540Z,70400
2017-07-24T08:49:22.604Z,69664
2017-07-24T08:50:25.016Z,65568
2017-07-24T08:51:27.076Z,60800
2017-07-24T08:52:29.140Z,63616
2017-07-24T08:53:31.870Z,66912
2017-07-24T08:54:34.617Z,68096
2017-07-24T08:55:36.687Z,71200
2017-07-24T08:56:39.424Z,69632
2017-07-24T08:57:41.826Z,46816
2017-07-24T08:58:44.221Z,45376
2017-07-24T08:59:46.278Z,44192
2017-07-24T09:00:48.355Z,33984
2017-07-24T09:01:50.425Z,34176
2017-07-24T09:02:52.489Z,33696
2017-07-24T09:03:54.566Z,33760
2017-07-24T09:04:56.954Z,35008
2017-07-24T09:05:59.376Z,35968
2017-07-24T09:07:01.806Z,36960
2017-07-24T09:08:03.877Z,36704
2017-07-24T09:09:06.286Z,37408
2017-07-24T09:10:08.351Z,39392
2017-07-24T09:11:10.757Z,42944
2017-07-24T09:12:13.144Z,45632
2017-07-24T09:13:15.201Z,44320
2017-07-24T09:14:17.612Z,50912
2017-07-24T09:15:20.004Z,56416
2017-07-24T09:16:22.418Z,56576
2017-07-24T09:17:24.479Z,60512
2017-07-24T09:18:26.538Z,62240
2017-07-24T09:19:28.954Z,60320
2017-07-24T09:20:31.016Z,63360
2017-07-24T09:21:33.073Z,62240
2017-07-24T09:22:35.154Z,66176
2017-07-24T09:23:37.211Z,69408
2017-07-24T09:24:39.299Z,69888
2017-07-24T09:25:41.362Z,70784
2017-07-24T09:26:43.457Z,72064
2017-07-24T09:27:45.856Z,84384
2017-07-24T09:28:47.924Z,94816
2017-07-24T09:29:49.993Z,95008
2017-07-24T09:30:52.060Z,96032
2017-07-24T09:31:54.492Z,93696
2017-07-24T09:32:57.262Z,101984
2017-07-24T09:33:59.317Z,96096
2017-07-24T09:35:01.427Z,104544
2017-07-24T09:36:04.202Z,112448
2017-07-24T09:37:06.271Z,109280
2017-07-24T09:38:08.673Z,102208
2017-07-24T09:39:11.771Z,109536
2017-07-24T09:40:13.831Z,111680
2017-07-24T09:41:15.908Z,109728
2017-07-24T09:42:18.311Z,102720
2017-07-24T09:43:20.374Z,107168
2017-07-24T09:44:22.782Z,107232
2017-07-24T09:45:24.857Z,105056
2017-07-24T09:46:26.914Z,96608
2017-07-24T09:47:28.975Z,103648
2017-07-24T09:48:31.056Z,106016
2017-07-24T09:49:33.473Z,94272
2017-07-24T09:50:35.883Z,102432
2017-07-24T09:51:37.957Z,116928
2017-07-24T09:52:40.017Z,111168
2017-07-24T09:53:42.097Z,110688
2017-07-24T09:54:44.503Z,68096
2017-07-24T09:55:46.569Z,116576
2017-07-24T09:56:48.641Z,133216
2017-07-24T09:57:50.707Z,70432
2017-07-24T09:58:52.820Z,115904
2017-07-24T09:59:55.563Z,30496
2017-07-24T10:00:57.644Z,82368
2017-07-24T10:01:59.738Z,69472
2017-07-24T10:03:01.803Z,78208
2017-07-24T10:04:03.873Z,134144
2017-07-24T10:05:06.341Z,129504
2017-07-24T10:06:08.754Z,122976
2017-07-24T10:07:10.819Z,124512
2017-07-24T10:08:13.246Z,136800
2017-07-24T10:09:15.673Z,126496
2017-07-24T10:10:17.731Z,116704
2017-07-24T10:11:19.817Z,89760
2017-07-24T10:12:21.897Z,64928
2017-07-24T10:13:24.301Z,85888
2017-07-24T10:14:26.370Z,98752
2017-07-24T10:15:28.454Z,32224
2017-07-24T10:16:30.879Z,141088
2017-07-24T10:17:32.954Z,145920
2017-07-24T10:18:35.369Z,138272
2017-07-24T10:19:37.819Z,141376
2017-07-24T10:20:39.902Z,109056
2017-07-24T10:21:41.978Z,49088
2017-07-24T10:22:44.068Z,46752
2017-07-24T10:23:46.142Z,132160
2017-07-24T10:24:48.207Z,55776
2017-07-24T10:25:50.276Z,27328
2017-07-24T10:26:52.682Z,28832
2017-07-24T10:27:55.116Z,28000
2017-07-24T10:28:57.563Z,26848
2017-07-24T10:29:59.973Z,28768
2017-07-24T10:31:02.402Z,30464
2017-07-24T10:32:04.469Z,32576
2017-07-24T10:33:06.562Z,31424
2017-07-24T10:34:08.970Z,29696
2017-07-24T10:35:11.029Z,29888
2017-07-24T10:36:13.453Z,30048
2017-07-24T10:37:15.541Z,30144
2017-07-24T10:38:17.621Z,30624
2017-07-24T10:39:19.681Z,84512
2017-07-24T10:40:21.748Z,127072
2017-07-24T10:41:23.846Z,159936
2017-07-24T10:42:26.249Z,164448
2017-07-24T10:43:28.328Z,154016
2017-07-24T10:44:30.787Z,138464
2017-07-24T10:45:33.202Z,118848
2017-07-24T10:46:35.617Z,147232
2017-07-24T10:47:37.682Z,129408
2017-07-24T10:48:39.751Z,140800
2017-07-24T10:49:41.836Z,144576
2017-07-24T10:50:43.899Z,140896
2017-07-24T10:51:46.326Z,137120
2017-07-24T10:52:48.737Z,130816
2017-07-24T10:53:50.795Z,131008
2017-07-24T10:54:52.874Z,131520
2017-07-24T10:55:55.982Z,32864
2017-07-24T10:56:58.397Z,80480
2017-07-24T10:58:00.470Z,100224
2017-07-24T10:59:02.542Z,47584
2017-07-24T11:00:04.973Z,112640
2017-07-24T11:01:07.042Z,111680
2017-07-24T11:02:09.817Z,109984
2017-07-24T11:03:11.907Z,119360
2017-07-24T11:04:13.993Z,77888
2017-07-24T11:05:16.408Z,107008
2017-07-24T11:06:18.818Z,131424
2017-07-24T11:07:21.584Z,125184
2017-07-24T11:08:24.344Z,120288
2017-07-24T11:09:26.412Z,128192
2017-07-24T11:10:28.826Z,132576
2017-07-24T11:11:30.918Z,131552
2017-07-24T11:12:32.998Z,35424
2017-07-24T11:13:35.436Z,34624
2017-07-24T11:14:37.872Z,29696
2017-07-24T11:15:39.940Z,29536
2017-07-24T11:16:42.009Z,29280
2017-07-24T11:17:44.089Z,28192
2017-07-24T11:18:46.180Z,27200
2017-07-24T11:19:48.272Z,25824
2017-07-24T11:20:50.408Z,24480
2017-07-24T11:21:52.484Z,23648
2017-07-24T11:22:54.549Z,23072
2017-07-24T11:23:56.616Z,22464
2017-07-24T11:24:58.709Z,21280
2017-07-24T11:26:00.778Z,19840
2017-07-24T11:27:02.864Z,18624
2017-07-24T11:28:05.273Z,17700
2017-07-24T11:29:07.680Z,17704
2017-07-24T11:30:09.763Z,18304
2017-07-24T11:31:12.190Z,18848
2017-07-24T11:32:14.262Z,18848
2017-07-24T11:33:16.343Z,18816
2017-07-24T11:34:18.398Z,19104
2017-07-24T11:35:20.804Z,19712
2017-07-24T11:36:22.879Z,20608
2017-07-24T11:37:24.945Z,21408
2017-07-24T11:38:27.013Z,22176
2017-07-24T11:39:29.088Z,22720
2017-07-24T11:40:31.161Z,23104
2017-07-24T11:41:33.228Z,23968
2017-07-24T11:42:35.293Z,25312
2017-07-24T11:43:37.372Z,27072
2017-07-24T11:44:39.450Z,28576
2017-07-24T11:45:41.517Z,29504
2017-07-24T11:46:43.589Z,30336
2017-07-24T11:47:46.019Z,30912
2017-07-24T11:48:48.098Z,31520
2017-07-24T11:49:50.200Z,32672
2017-07-24T11:50:52.265Z,33568
2017-07-24T11:51:54.326Z,33984
2017-07-24T11:52:56.420Z,34912
2017-07-24T11:53:58.490Z,36032
2017-07-24T11:55:00.556Z,36960
2017-07-24T11:56:02.618Z,37696
2017-07-24T11:57:05.032Z,38400
2017-07-24T11:58:07.154Z,39040
2017-07-24T11:59:09.220Z,39648
2017-07-24T12:00:11.980Z,41248
2017-07-24T12:01:14.044Z,43264
2017-07-24T12:02:16.109Z,45280
2017-07-24T12:03:18.168Z,59296
2017-07-24T12:04:20.573Z,93728
2017-07-24T12:05:22.671Z,99296
2017-07-24T12:06:24.733Z,114240
2017-07-24T12:07:27.143Z,102592
2017-07-24T12:08:29.224Z,74592
2017-07-24T12:09:31.289Z,80096
2017-07-24T12:10:34.040Z,78016
2017-07-24T12:11:36.106Z,76448
2017-07-24T12:12:38.171Z,79168
2017-07-24T12:13:40.240Z,70400
2017-07-24T12:14:42.294Z,75520
2017-07-24T12:15:44.364Z,62432
2017-07-24T12:16:46.797Z,75776
2017-07-24T12:17:49.224Z,78048
2017-07-24T12:18:51.987Z,74528
2017-07-24T12:19:54.067Z,54144
2017-07-24T12:20:56.141Z,46016
2017-07-24T12:21:58.217Z,40512
2017-07-24T12:23:00.301Z,36224
2017-07-24T12:24:02.724Z,34752
2017-07-24T12:25:04.788Z,36064
2017-07-24T12:26:07.228Z,31200
2017-07-24T12:27:09.296Z,33280
2017-07-24T12:28:11.376Z,28192
2017-07-24T12:29:13.442Z,29120
2017-07-24T12:30:15.521Z,30432
2017-07-24T12:31:17.625Z,47264
2017-07-24T12:32:19.683Z,38496
2017-07-24T12:33:21.752Z,30816
2017-07-24T12:34:23.825Z,30048
2017-07-24T12:35:25.892Z,28192
2017-07-24T12:36:28.293Z,28128
2017-07-24T12:37:30.368Z,27136
2017-07-24T12:38:32.806Z,25408
2017-07-24T12:39:34.877Z,24192
2017-07-24T12:40:36.946Z,22304
2017-07-24T12:41:39.032Z,19712
2017-07-24T12:42:41.100Z,17616
2017-07-24T12:43:43.173Z,16256
2017-07-24T12:44:45.238Z,15264
2017-07-24T12:45:47.312Z,14312
2017-07-24T12:46:50.137Z,13188
2017-07-24T12:47:52.201Z,12244
2017-07-24T12:48:54.617Z,11592
2017-07-24T12:49:56.701Z,11056
2017-07-24T12:50:58.785Z,10540
2017-07-24T12:52:00.844Z,10064
2017-07-24T12:53:02.934Z,9760
2017-07-24T12:54:05.356Z,9656
2017-07-24T12:55:33.107Z,9536
2017-07-24T12:56:35.215Z,9472
2017-07-24T12:57:37.670Z,9552
2017-07-24T12:58:40.128Z,9480
2017-07-24T12:59:42.576Z,9372
2017-07-24T13:00:44.689Z,9296
2017-07-24T13:01:46.837Z,9328
2017-07-24T13:02:48.957Z,9420
2017-07-24T13:03:51.068Z,9628
2017-07-24T13:04:53.507Z,9832
2017-07-24T13:05:55.620Z,9840
2017-07-24T13:06:58.099Z,9800
2017-07-24T13:08:00.207Z,9636
2017-07-24T13:09:02.661Z,9680
2017-07-24T13:10:05.122Z,10004
2017-07-24T13:11:07.557Z,10280
2017-07-24T13:12:09.710Z,10428
2017-07-24T13:13:11.811Z,10592
2017-07-24T13:14:13.928Z,10692
2017-07-24T13:15:16.027Z,10668
2017-07-24T13:16:18.139Z,10872
2017-07-24T13:17:20.601Z,10912
2017-07-24T13:18:23.056Z,10896
2017-07-24T13:19:25.168Z,10752
2017-07-24T13:20:27.296Z,10520
2017-07-24T13:21:30.074Z,10680
2017-07-24T13:22:32.194Z,11024
2017-07-24T13:23:34.636Z,11200
2017-07-24T13:24:37.096Z,11372
2017-07-24T13:25:39.216Z,11904
2017-07-24T13:26:41.664Z,12348
2017-07-24T13:27:43.780Z,12572
2017-07-24T13:28:45.889Z,12752
2017-07-24T13:29:47.988Z,12932
2017-07-24T13:30:50.122Z,13156
2017-07-24T13:31:52.223Z,13556
2017-07-24T13:32:54.336Z,14164
2017-07-24T13:33:56.794Z,14812
2017-07-24T13:34:58.897Z,15220
2017-07-24T13:36:01.332Z,15420
2017-07-24T13:37:03.790Z,15548
2017-07-24T13:38:05.899Z,16020
2017-07-24T13:39:08.362Z,16784
2017-07-24T13:40:10.456Z,17488
2017-07-24T13:41:12.904Z,18212
2017-07-24T13:42:15.373Z,18848
2017-07-24T13:43:17.506Z,18348
2017-07-24T13:44:20.017Z,17584
2017-07-24T13:45:22.140Z,16344
2017-07-24T13:46:24.243Z,15064
2017-07-24T13:47:26.358Z,14128
2017-07-24T13:48:28.468Z,13304
2017-07-24T13:49:30.592Z,12744
2017-07-24T13:50:33.252Z,12244
2017-07-24T13:51:36.066Z,11944